Albert Lea, MN

10:31 AM CDT on October 01, 2016 (GMT -0500)
Albert Lea Municipal

Weather History for KAEL - February, 2013

Change the Weather History Date:

Tuesday, February 5, 2013

  Actual Average Record
Temperature  
Mean Temperature 24 °F -  
Max Temperature 33 °F 25 °F 51 °F (2005)
Min Temperature 12 °F 10 °F -16 °F (2007)
Degree Days  
Heating Degree Days 41    
Moisture  
Dew Point 23 °F    
Average Humidity 91    
Maximum Humidity 100    
Minimum Humidity 75    
Precipitation  
Precipitation 0.00 in - - ()
Sea Level Pressure  
Sea Level Pressure 29.85 in    
Wind  
Wind Speed 9 mph (West)    
Max Wind Speed 16 mph    
Max Gust Speed 25 mph    
Visibility 7 miles    
Events Snow    
Averages and records for this station are not official NWS values.
T = Trace of Precipitation, MM = Missing Value Source: NWS Daily Summary

Daily Weather History Graph

Daily Weather History Graph

Search for Another Location

Airport or City:

Trip Planner

Search our weather history database for the weather conditions in past years. The results will help you decide how hot, cold, wet, or windy it might be!

Date:

Astronomy

Feb. 05, 2013 Rise Set
Actual Time 7:25 AM CST 5:30 PM CST
Civil Twilight 6:54 AM CST 6:00 PM CST
Nautical Twilight 6:20 AM CST 6:34 PM CST
Astronomical Twilight 5:47 AM CST 7:08 PM CST
Moon 3:11 AM CST (2/5) 12:44 PM CST (2/5)
Length of Visible Light 11h 05m
Length of Day
10h 05m
Waning Crescent, 26% of the Moon is Illuminated
Feb 5
Waning Crescent
Feb 10
New
Feb 17
First Quarter
Feb 25
Full
Mar 4
Last Quarter

Hourly Weather History & Observations

Time (CST) Temp. Windchill Dew Point Humidity Pressure Visibility Wind Dir Wind Speed Gust Speed Precip Events Conditions
12:10 AM 21.2 °F 10.9 °F 19.4 °F 93% 29.79 in 3.0 mi South 9.2 mph 16.1 mph N/A Snow Light Snow
12:30 AM 21.2 °F 10.9 °F 19.4 °F 93% 29.77 in 5.0 mi South 9.2 mph - N/A Snow Light Snow
12:50 AM 21.2 °F 10.1 °F 19.4 °F 93% 29.76 in 7.0 mi South 10.4 mph 17.3 mph N/A   Overcast
1:10 AM 21.2 °F 9.5 °F 19.4 °F 93% 29.74 in 10.0 mi South 11.5 mph 16.1 mph N/A   Mostly Cloudy
1:30 AM 21.2 °F 9.5 °F 19.4 °F 93% 29.72 in 10.0 mi SSW 11.5 mph 20.7 mph N/A   Clear
1:50 AM 23.0 °F 11.7 °F 21.2 °F 93% 29.72 in 10.0 mi SSW 11.5 mph 19.6 mph N/A   Scattered Clouds
2:10 AM 23.0 °F 10.1 °F 21.2 °F 93% 29.72 in 10.0 mi SSW 15.0 mph 21.9 mph N/A   Mostly Cloudy
2:30 AM 24.8 °F 13.4 °F 21.2 °F 86% 29.72 in 10.0 mi SSW 12.7 mph 20.7 mph N/A   Mostly Cloudy
2:49 AM 24.8 °F 14.6 °F 21.2 °F 86% 29.72 in 10.0 mi SW 10.4 mph 16.1 mph N/A   Mostly Cloudy
3:10 AM 23.0 °F 11.7 °F 21.2 °F 93% 29.71 in 10.0 mi SSW 11.5 mph 18.4 mph N/A   Clear
3:30 AM 23.0 °F 11.1 °F 21.2 °F 93% 29.70 in 10.0 mi SW 12.7 mph - N/A   Clear
3:49 AM 23.0 °F 13.1 °F 21.2 °F 93% 29.70 in 7.0 mi SW 9.2 mph - N/A   Clear
4:10 AM 21.2 °F 10.9 °F 21.2 °F 100% 29.70 in 7.0 mi SW 9.2 mph - N/A   Clear
4:30 AM 21.2 °F 10.9 °F 21.2 °F 100% 29.69 in 7.0 mi SW 9.2 mph - N/A   Clear
4:50 AM 23.0 °F 13.9 °F 21.2 °F 93% 29.70 in 7.0 mi SW 8.1 mph - N/A   Mostly Cloudy
5:10 AM 23.0 °F 14.7 °F 21.2 °F 93% 29.69 in 7.0 mi SW 6.9 mph 16.1 mph N/A   Scattered Clouds
5:30 AM 21.2 °F 11.7 °F 21.2 °F 100% 29.69 in 5.0 mi SW 8.1 mph - N/A   Clear
5:50 AM 21.2 °F 11.7 °F 21.2 °F 100% 29.69 in 5.0 mi SW 8.1 mph - N/A   Clear
6:10 AM 23.0 °F 13.9 °F 21.2 °F 93% 29.69 in 5.0 mi SW 8.1 mph - N/A   Scattered Clouds
6:50 AM 24.8 °F 16.1 °F 24.8 °F 100% 29.69 in 4.0 mi WSW 8.1 mph - N/A Snow Light Snow
7:10 AM 26.6 °F 18.2 °F 24.8 °F 93% 29.69 in 2.0 mi WSW 8.1 mph - N/A Snow Light Snow
7:30 AM 26.6 °F 16.8 °F 26.6 °F 100% 29.70 in 0.5 mi West 10.4 mph - N/A Snow Heavy Snow
7:50 AM 26.6 °F 18.2 °F 26.6 °F 100% 29.71 in 1.2 mi West 8.1 mph - N/A Snow Light Snow
8:10 AM 26.6 °F 19.1 °F 26.6 °F 100% 29.72 in 2.5 mi West 6.9 mph - N/A Snow Light Snow
8:29 AM 26.6 °F 18.2 °F 26.6 °F 100% 29.73 in 1.8 mi West 8.1 mph - N/A Snow Light Snow
8:50 AM 28.4 °F 20.4 °F 26.6 °F 93% 29.74 in 0.8 mi West 8.1 mph - N/A Snow Light Snow
9:10 AM 28.4 °F 20.4 °F 28.4 °F 100% 29.75 in 2.5 mi West 8.1 mph - N/A Snow Light Snow
9:29 AM 30.2 °F 21.9 °F 28.4 °F 93% 29.76 in 4.0 mi WNW 9.2 mph - N/A Snow Light Snow
9:50 AM 30.2 °F 22.6 °F 28.4 °F 93% 29.77 in 4.0 mi WNW 8.1 mph - N/A Snow Light Snow
10:10 AM 32.0 °F 23.6 °F 30.2 °F 93% 29.78 in 5.0 mi WNW 10.4 mph 16.1 mph N/A   Overcast
10:30 AM 33.8 °F 25.8 °F 30.2 °F 87% 29.79 in 7.0 mi WNW 10.4 mph 16.1 mph N/A   Mostly Cloudy
10:50 AM 33.8 °F 25.8 °F 30.2 °F 87% 29.80 in 10.0 mi WNW 10.4 mph 19.6 mph N/A   Scattered Clouds
11:10 AM 33.8 °F 25.8 °F 30.2 °F 87% 29.81 in 10.0 mi NW 10.4 mph 18.4 mph N/A   Scattered Clouds
11:30 AM 33.8 °F 26.4 °F 30.2 °F 87% 29.82 in 10.0 mi NW 9.2 mph 17.3 mph N/A   Mostly Cloudy
11:50 AM 33.8 °F 23.9 °F 30.2 °F 87% 29.82 in 10.0 mi NW 15.0 mph 21.9 mph N/A   Mostly Cloudy
12:10 PM 33.8 °F 24.3 °F 33.8 °F 100% 29.83 in 10.0 mi WNW 13.8 mph 24.2 mph N/A   Overcast
12:30 PM 33.8 °F 23.5 °F 32.0 °F 93% 29.83 in 7.0 mi NW 16.1 mph 25.3 mph N/A   Mostly Cloudy
12:50 PM 33.8 °F 24.8 °F 32.0 °F 93% 29.84 in 7.0 mi NW 12.7 mph 24.2 mph N/A   Scattered Clouds
1:10 PM 33.8 °F 23.9 °F 28.4 °F 81% 29.85 in 10.0 mi NW 15.0 mph 20.7 mph N/A   Mostly Cloudy
1:30 PM 32.0 °F 23.6 °F 28.4 °F 87% 29.86 in 10.0 mi NW 10.4 mph 16.1 mph N/A   Overcast
1:50 PM 33.8 °F 25.3 °F 28.4 °F 81% 29.86 in 10.0 mi NW 11.5 mph 16.1 mph N/A   Overcast
2:10 PM 32.0 °F 23.0 °F 26.6 °F 80% 29.87 in 10.0 mi NW 11.5 mph 17.3 mph N/A   Mostly Cloudy
2:30 PM 33.8 °F 23.9 °F 26.6 °F 75% 29.88 in 10.0 mi NW 15.0 mph 21.9 mph N/A   Clear
2:50 PM 32.0 °F 24.8 °F 26.6 °F 80% 29.89 in 10.0 mi NW 8.1 mph 18.4 mph N/A   Clear
3:09 PM 30.2 °F 19.3 °F 24.8 °F 80% 29.90 in 10.0 mi NW 15.0 mph 20.7 mph N/A   Scattered Clouds
3:30 PM 30.2 °F 19.8 °F 23.0 °F 75% 29.92 in 7.0 mi NW 13.8 mph 21.9 mph N/A   Scattered Clouds
3:50 PM 28.4 °F 19.7 °F 23.0 °F 80% 29.93 in 10.0 mi NW 9.2 mph 16.1 mph N/A   Scattered Clouds
4:10 PM 26.6 °F 18.2 °F 21.2 °F 80% 29.94 in 10.0 mi NW 8.1 mph 19.6 mph N/A   Clear
4:30 PM 26.6 °F 16.8 °F 21.2 °F 80% 29.95 in 10.0 mi WNW 10.4 mph - N/A   Scattered Clouds
4:50 PM 24.8 °F 16.9 °F 21.2 °F 86% 29.96 in 7.0 mi WNW 6.9 mph - N/A   Overcast
5:10 PM 24.8 °F 16.1 °F 21.2 °F 86% 29.97 in 7.0 mi WNW 8.1 mph - N/A   Overcast
5:30 PM 24.8 °F 16.1 °F 21.2 °F 86% 29.98 in 7.0 mi WNW 8.1 mph - N/A   Overcast
5:50 PM 24.8 °F 16.1 °F 21.2 °F 86% 29.98 in 10.0 mi WNW 8.1 mph - N/A   Overcast
6:10 PM 23.0 °F 13.9 °F 21.2 °F 93% 29.99 in 10.0 mi WNW 8.1 mph - N/A   Overcast
6:30 PM 23.0 °F 15.8 °F 21.2 °F 93% 29.99 in 7.0 mi NW 5.8 mph - N/A   Overcast
6:50 PM 23.0 °F 17.0 °F 21.2 °F 93% 30.00 in 7.0 mi WNW 4.6 mph - N/A   Overcast
7:09 PM 23.0 °F 15.8 °F 19.4 °F 86% 30.01 in 7.0 mi WNW 5.8 mph - N/A   Overcast
7:50 PM 21.2 °F 14.9 °F 19.4 °F 93% 30.03 in 7.0 mi WNW 4.6 mph - N/A   Overcast
8:30 PM 21.2 °F 14.9 °F 19.4 °F 93% 30.03 in 7.0 mi NW 4.6 mph - N/A   Overcast
8:49 PM 19.4 °F 11.5 °F 17.6 °F 93% 30.03 in 7.0 mi NW 5.8 mph - N/A   Overcast
9:10 PM 19.4 °F 12.8 °F 17.6 °F 93% 30.05 in 7.0 mi WNW 4.6 mph - N/A   Overcast
9:30 PM 19.4 °F - 17.6 °F 93% 30.06 in 7.0 mi Calm Calm - N/A   Overcast
9:50 PM 19.4 °F 11.5 °F 17.6 °F 93% 30.06 in 7.0 mi NW 5.8 mph - N/A   Overcast
10:10 PM 17.6 °F 10.7 °F 17.6 °F 100% 30.06 in 7.0 mi North 4.6 mph - N/A   Overcast
10:30 PM 17.6 °F 12.3 °F 15.8 °F 93% 30.06 in 7.0 mi NW 3.5 mph - N/A   Overcast
10:50 PM 15.8 °F - 14.0 °F 93% 30.06 in 10.0 mi Calm Calm - N/A   Overcast
11:10 PM 15.8 °F - 12.2 °F 86% 30.06 in 10.0 mi Calm Calm - N/A   Scattered Clouds
11:30 PM 15.8 °F - 12.2 °F 86% 30.07 in 10.0 mi Calm Calm - N/A   Mostly Cloudy
11:50 PM 12.2 °F - 12.2 °F 100% 30.07 in 10.0 mi Calm Calm - N/A   Scattered Clouds